sensor_id;sensor_type;location;lat;lon;timestamp;P1;durP1;ratioP1;P2;durP2;ratioP2
50681;SDS011;36779;52.168;20.878;2024-03-02T00:02:25;45.40;;;18.00;;
50681;SDS011;36779;52.168;20.878;2024-03-02T00:04:58;48.80;;;17.80;;
50681;SDS011;36779;52.168;20.878;2024-03-02T00:07:30;45.60;;;16.90;;
50681;SDS011;36779;52.168;20.878;2024-03-02T00:10:08;44.80;;;17.80;;
50681;SDS011;36779;52.168;20.878;2024-03-02T00:12:46;50.80;;;18.30;;
50681;SDS011;36779;52.168;20.878;2024-03-02T00:15:33;44.70;;;17.10;;
50681;SDS011;36779;52.168;20.878;2024-03-02T00:18:18;42.00;;;16.30;;
50681;SDS011;36779;52.168;20.878;2024-03-02T00:20:53;36.90;;;14.00;;
50681;SDS011;36779;52.168;20.878;2024-03-02T00:23:29;39.80;;;15.60;;
50681;SDS011;36779;52.168;20.878;2024-03-02T00:26:03;47.00;;;17.10;;
50681;SDS011;36779;52.168;20.878;2024-03-02T00:28:40;49.80;;;18.20;;
50681;SDS011;36779;52.168;20.878;2024-03-02T00:31:16;45.90;;;16.70;;
50681;SDS011;36779;52.168;20.878;2024-03-02T00:33:52;44.10;;;16.10;;
50681;SDS011;36779;52.168;20.878;2024-03-02T00:36:26;46.60;;;17.00;;
50681;SDS011;36779;52.168;20.878;2024-03-02T00:38:58;36.90;;;14.00;;
50681;SDS011;36779;52.168;20.878;2024-03-02T00:41:31;47.50;;;18.80;;
50681;SDS011;36779;52.168;20.878;2024-03-02T00:44:05;48.40;;;17.30;;
50681;SDS011;36779;52.168;20.878;2024-03-02T00:46:41;44.50;;;16.90;;
50681;SDS011;36779;52.168;20.878;2024-03-02T00:49:20;43.00;;;14.70;;
50681;SDS011;36779;52.168;20.878;2024-03-02T00:51:55;38.20;;;14.50;;
50681;SDS011;36779;52.168;20.878;2024-03-02T00:57:22;43.00;;;16.40;;
50681;SDS011;36779;52.168;20.878;2024-03-02T00:59:56;43.70;;;17.30;;
50681;SDS011;36779;52.168;20.878;2024-03-02T01:02:29;46.00;;;16.70;;
50681;SDS011;36779;52.168;20.878;2024-03-02T01:05:01;46.10;;;16.30;;
50681;SDS011;36779;52.168;20.878;2024-03-02T01:07:34;46.70;;;17.10;;
50681;SDS011;36779;52.168;20.878;2024-03-02T01:10:10;41.80;;;16.40;;
50681;SDS011;36779;52.168;20.878;2024-03-02T01:12:47;43.70;;;14.50;;
50681;SDS011;36779;52.168;20.878;2024-03-02T01:15:20;45.90;;;16.20;;
50681;SDS011;36779;52.168;20.878;2024-03-02T01:17:56;38.90;;;15.50;;
50681;SDS011;36779;52.168;20.878;2024-03-02T01:20:28;37.00;;;14.70;;
50681;SDS011;36779;52.168;20.878;2024-03-02T01:23:01;38.20;;;14.40;;
50681;SDS011;36779;52.168;20.878;2024-03-02T01:25:33;48.70;;;14.40;;
50681;SDS011;36779;52.168;20.878;2024-03-02T01:28:06;39.80;;;16.40;;
50681;SDS011;36779;52.168;20.878;2024-03-02T01:30:41;50.00;;;19.10;;
50681;SDS011;36779;52.168;20.878;2024-03-02T01:33:20;45.30;;;17.20;;
50681;SDS011;36779;52.168;20.878;2024-03-02T01:35:52;42.90;;;15.90;;
50681;SDS011;36779;52.168;20.878;2024-03-02T01:38:25;40.70;;;15.20;;
50681;SDS011;36779;52.168;20.878;2024-03-02T01:40:58;46.80;;;16.30;;
50681;SDS011;36779;52.168;20.878;2024-03-02T01:43:30;41.20;;;16.60;;
50681;SDS011;36779;52.168;20.878;2024-03-02T01:46:02;42.20;;;14.70;;
50681;SDS011;36779;52.168;20.878;2024-03-02T01:48:41;43.00;;;15.60;;
50681;SDS011;36779;52.168;20.878;2024-03-02T01:51:18;44.00;;;18.00;;
50681;SDS011;36779;52.168;20.878;2024-03-02T01:53:52;43.70;;;16.10;;
50681;SDS011;36779;52.168;20.878;2024-03-02T01:56:24;38.30;;;14.60;;
50681;SDS011;36779;52.168;20.878;2024-03-02T01:58:56;34.30;;;13.20;;
50681;SDS011;36779;52.168;20.878;2024-03-02T02:01:29;42.70;;;15.80;;
50681;SDS011;36779;52.168;20.878;2024-03-02T02:04:01;44.90;;;15.60;;
50681;SDS011;36779;52.168;20.878;2024-03-02T02:06:35;48.30;;;17.90;;
50681;SDS011;36779;52.168;20.878;2024-03-02T02:09:07;46.40;;;17.40;;
50681;SDS011;36779;52.168;20.878;2024-03-02T02:11:41;48.80;;;18.30;;
50681;SDS011;36779;52.168;20.878;2024-03-02T02:14:16;42.50;;;14.30;;
50681;SDS011;36779;52.168;20.878;2024-03-02T02:16:49;43.00;;;15.50;;
50681;SDS011;36779;52.168;20.878;2024-03-02T02:19:24;40.20;;;15.60;;
50681;SDS011;36779;52.168;20.878;2024-03-02T02:21:56;39.60;;;14.70;;
50681;SDS011;36779;52.168;20.878;2024-03-02T02:24:28;49.10;;;16.70;;
50681;SDS011;36779;52.168;20.878;2024-03-02T02:27:01;43.30;;;15.50;;
50681;SDS011;36779;52.168;20.878;2024-03-02T02:29:33;47.80;;;16.50;;
50681;SDS011;36779;52.168;20.878;2024-03-02T02:32:05;39.70;;;14.20;;
50681;SDS011;36779;52.168;20.878;2024-03-02T02:34:38;49.40;;;15.90;;
50681;SDS011;36779;52.168;20.878;2024-03-02T02:37:10;36.70;;;14.40;;
50681;SDS011;36779;52.168;20.878;2024-03-02T02:39:44;47.40;;;17.00;;
50681;SDS011;36779;52.168;20.878;2024-03-02T02:42:16;48.00;;;18.30;;
50681;SDS011;36779;52.168;20.878;2024-03-02T02:44:48;47.30;;;16.50;;
50681;SDS011;36779;52.168;20.878;2024-03-02T02:47:25;48.30;;;17.20;;
50681;SDS011;36779;52.168;20.878;2024-03-02T02:49:59;49.10;;;15.40;;
50681;SDS011;36779;52.168;20.878;2024-03-02T02:52:32;30.70;;;11.90;;
50681;SDS011;36779;52.168;20.878;2024-03-02T02:55:07;48.00;;;16.90;;
50681;SDS011;36779;52.168;20.878;2024-03-02T02:57:40;44.60;;;16.50;;
50681;SDS011;36779;52.168;20.878;2024-03-02T03:00:14;47.00;;;16.90;;
50681;SDS011;36779;52.168;20.878;2024-03-02T03:02:55;44.10;;;15.80;;
50681;SDS011;36779;52.168;20.878;2024-03-02T03:05:27;45.80;;;17.10;;
50681;SDS011;36779;52.168;20.878;2024-03-02T03:08:00;46.40;;;17.40;;
50681;SDS011;36779;52.168;20.878;2024-03-02T03:10:32;39.60;;;16.20;;
50681;SDS011;36779;52.168;20.878;2024-03-02T03:13:04;40.10;;;15.60;;
50681;SDS011;36779;52.168;20.878;2024-03-02T03:15:37;38.20;;;15.60;;
50681;SDS011;36779;52.168;20.878;2024-03-02T03:18:12;31.20;;;12.30;;
50681;SDS011;36779;52.168;20.878;2024-03-02T03:20:50;44.70;;;17.70;;
50681;SDS011;36779;52.168;20.878;2024-03-02T03:23:22;41.70;;;15.60;;
50681;SDS011;36779;52.168;20.878;2024-03-02T03:25:55;47.10;;;17.00;;
50681;SDS011;36779;52.168;20.878;2024-03-02T03:28:29;45.70;;;15.80;;
50681;SDS011;36779;52.168;20.878;2024-03-02T03:31:03;41.50;;;15.50;;
50681;SDS011;36779;52.168;20.878;2024-03-02T03:33:45;56.50;;;17.60;;
50681;SDS011;36779;52.168;20.878;2024-03-02T03:36:17;42.40;;;16.10;;
50681;SDS011;36779;52.168;20.878;2024-03-02T03:38:50;39.20;;;16.30;;
50681;SDS011;36779;52.168;20.878;2024-03-02T03:41:22;45.50;;;15.90;;
50681;SDS011;36779;52.168;20.878;2024-03-02T03:43:54;41.20;;;16.20;;
50681;SDS011;36779;52.168;20.878;2024-03-02T03:46:26;40.10;;;15.40;;
50681;SDS011;36779;52.168;20.878;2024-03-02T03:49:01;45.70;;;17.10;;
50681;SDS011;36779;52.168;20.878;2024-03-02T03:51:35;34.60;;;13.60;;
50681;SDS011;36779;52.168;20.878;2024-03-02T03:54:16;36.40;;;13.50;;
50681;SDS011;36779;52.168;20.878;2024-03-02T03:56:49;37.30;;;14.50;;
50681;SDS011;36779;52.168;20.878;2024-03-02T03:59:21;40.30;;;15.50;;
50681;SDS011;36779;52.168;20.878;2024-03-02T04:01:54;40.50;;;14.80;;
50681;SDS011;36779;52.168;20.878;2024-03-02T04:04:26;38.30;;;15.10;;
50681;SDS011;36779;52.168;20.878;2024-03-02T04:06:58;40.60;;;13.20;;
50681;SDS011;36779;52.168;20.878;2024-03-02T04:09:36;41.30;;;14.70;;
50681;SDS011;36779;52.168;20.878;2024-03-02T04:12:14;40.80;;;15.10;;
50681;SDS011;36779;52.168;20.878;2024-03-02T04:14:47;38.40;;;15.30;;
50681;SDS011;36779;52.168;20.878;2024-03-02T04:17:19;48.10;;;15.30;;
50681;SDS011;36779;52.168;20.878;2024-03-02T04:19:52;40.60;;;15.00;;
50681;SDS011;36779;52.168;20.878;2024-03-02T04:22:24;38.40;;;14.80;;
50681;SDS011;36779;52.168;20.878;2024-03-02T04:24:57;39.10;;;14.80;;
50681;SDS011;36779;52.168;20.878;2024-03-02T04:27:29;42.40;;;15.90;;
50681;SDS011;36779;52.168;20.878;2024-03-02T04:30:03;40.00;;;14.70;;
50681;SDS011;36779;52.168;20.878;2024-03-02T04:32:37;30.80;;;12.40;;
50681;SDS011;36779;52.168;20.878;2024-03-02T04:35:09;32.80;;;11.50;;
50681;SDS011;36779;52.168;20.878;2024-03-02T04:37:52;41.70;;;15.30;;
50681;SDS011;36779;52.168;20.878;2024-03-02T04:40:24;41.50;;;14.40;;
50681;SDS011;36779;52.168;20.878;2024-03-02T04:42:59;44.30;;;16.20;;
50681;SDS011;36779;52.168;20.878;2024-03-02T04:45:33;39.00;;;14.40;;
50681;SDS011;36779;52.168;20.878;2024-03-02T04:48:09;39.30;;;13.80;;
50681;SDS011;36779;52.168;20.878;2024-03-02T04:50:50;42.70;;;15.50;;
50681;SDS011;36779;52.168;20.878;2024-03-02T04:53:22;45.90;;;14.90;;
50681;SDS011;36779;52.168;20.878;2024-03-02T04:55:55;42.90;;;15.90;;
50681;SDS011;36779;52.168;20.878;2024-03-02T04:58:46;37.00;;;16.00;;
50681;SDS011;36779;52.168;20.878;2024-03-02T05:01:22;36.30;;;12.60;;
50681;SDS011;36779;52.168;20.878;2024-03-02T05:03:55;38.40;;;12.80;;
50681;SDS011;36779;52.168;20.878;2024-03-02T05:06:27;37.80;;;13.50;;
50681;SDS011;36779;52.168;20.878;2024-03-02T05:09:02;40.50;;;13.30;;
50681;SDS011;36779;52.168;20.878;2024-03-02T05:11:35;38.00;;;14.30;;
50681;SDS011;36779;52.168;20.878;2024-03-02T05:14:49;41.40;;;14.10;;
50681;SDS011;36779;52.168;20.878;2024-03-02T05:17:22;42.20;;;14.80;;
50681;SDS011;36779;52.168;20.878;2024-03-02T05:19:55;44.40;;;14.40;;
50681;SDS011;36779;52.168;20.878;2024-03-02T05:22:28;44.90;;;15.70;;
50681;SDS011;36779;52.168;20.878;2024-03-02T05:25:00;37.10;;;13.30;;
50681;SDS011;36779;52.168;20.878;2024-03-02T05:27:32;40.80;;;14.10;;
50681;SDS011;36779;52.168;20.878;2024-03-02T05:30:06;33.30;;;12.80;;
50681;SDS011;36779;52.168;20.878;2024-03-02T05:32:39;48.40;;;15.20;;
50681;SDS011;36779;52.168;20.878;2024-03-02T05:35:26;38.20;;;12.70;;
50681;SDS011;36779;52.168;20.878;2024-03-02T05:38:00;41.70;;;12.80;;
50681;SDS011;36779;52.168;20.878;2024-03-02T05:40:32;39.40;;;14.00;;
50681;SDS011;36779;52.168;20.878;2024-03-02T05:43:07;41.50;;;14.20;;
50681;SDS011;36779;52.168;20.878;2024-03-02T05:45:40;40.70;;;15.00;;
50681;SDS011;36779;52.168;20.878;2024-03-02T05:48:23;40.60;;;14.20;;
50681;SDS011;36779;52.168;20.878;2024-03-02T05:50:55;32.70;;;11.40;;
50681;SDS011;36779;52.168;20.878;2024-03-02T05:53:28;40.50;;;14.30;;
50681;SDS011;36779;52.168;20.878;2024-03-02T05:56:00;45.00;;;15.10;;
50681;SDS011;36779;52.168;20.878;2024-03-02T05:58:35;44.60;;;14.40;;
50681;SDS011;36779;52.168;20.878;2024-03-02T06:01:28;43.30;;;14.20;;
50681;SDS011;36779;52.168;20.878;2024-03-02T06:04:10;44.10;;;14.40;;
50681;SDS011;36779;52.168;20.878;2024-03-02T06:06:45;48.20;;;15.30;;
50681;SDS011;36779;52.168;20.878;2024-03-02T06:09:19;39.60;;;13.90;;
50681;SDS011;36779;52.168;20.878;2024-03-02T06:11:54;37.80;;;13.80;;
50681;SDS011;36779;52.168;20.878;2024-03-02T06:14:27;39.70;;;14.20;;
50681;SDS011;36779;52.168;20.878;2024-03-02T06:17:02;41.50;;;13.50;;
50681;SDS011;36779;52.168;20.878;2024-03-02T06:19:34;38.40;;;14.10;;
50681;SDS011;36779;52.168;20.878;2024-03-02T06:22:06;33.20;;;13.40;;
50681;SDS011;36779;52.168;20.878;2024-03-02T06:24:39;33.50;;;12.60;;
50681;SDS011;36779;52.168;20.878;2024-03-02T06:27:16;40.80;;;14.10;;
50681;SDS011;36779;52.168;20.878;2024-03-02T06:29:56;37.20;;;13.40;;
50681;SDS011;36779;52.168;20.878;2024-03-02T06:32:29;37.10;;;13.10;;
50681;SDS011;36779;52.168;20.878;2024-03-02T06:35:01;39.80;;;13.10;;
50681;SDS011;36779;52.168;20.878;2024-03-02T06:37:35;38.70;;;13.80;;
50681;SDS011;36779;52.168;20.878;2024-03-02T06:40:09;37.50;;;14.20;;
50681;SDS011;36779;52.168;20.878;2024-03-02T06:42:46;37.80;;;13.60;;
50681;SDS011;36779;52.168;20.878;2024-03-02T06:45:18;37.10;;;13.20;;
50681;SDS011;36779;52.168;20.878;2024-03-02T06:47:51;34.30;;;12.00;;
50681;SDS011;36779;52.168;20.878;2024-03-02T06:50:24;40.20;;;13.90;;
50681;SDS011;36779;52.168;20.878;2024-03-02T06:53:01;38.90;;;13.50;;
50681;SDS011;36779;52.168;20.878;2024-03-02T06:55:34;25.80;;;10.40;;
50681;SDS011;36779;52.168;20.878;2024-03-02T06:58:06;35.40;;;12.90;;
50681;SDS011;36779;52.168;20.878;2024-03-02T07:00:38;30.90;;;12.10;;
50681;SDS011;36779;52.168;20.878;2024-03-02T07:03:12;33.20;;;12.70;;
50681;SDS011;36779;52.168;20.878;2024-03-02T07:05:52;32.40;;;11.20;;
50681;SDS011;36779;52.168;20.878;2024-03-02T07:08:24;41.90;;;14.70;;
50681;SDS011;36779;52.168;20.878;2024-03-02T07:10:57;37.10;;;12.90;;
50681;SDS011;36779;52.168;20.878;2024-03-02T07:13:30;31.30;;;10.60;;
50681;SDS011;36779;52.168;20.878;2024-03-02T07:16:05;33.10;;;11.70;;
50681;SDS011;36779;52.168;20.878;2024-03-02T07:19:01;34.20;;;12.30;;
50681;SDS011;36779;52.168;20.878;2024-03-02T07:21:35;34.90;;;12.40;;
50681;SDS011;36779;52.168;20.878;2024-03-02T07:24:08;33.70;;;12.40;;
50681;SDS011;36779;52.168;20.878;2024-03-02T07:26:42;39.50;;;13.00;;
50681;SDS011;36779;52.168;20.878;2024-03-02T07:29:20;33.70;;;11.40;;
50681;SDS011;36779;52.168;20.878;2024-03-02T07:31:52;32.20;;;12.10;;
50681;SDS011;36779;52.168;20.878;2024-03-02T07:34:25;32.10;;;11.20;;
50681;SDS011;36779;52.168;20.878;2024-03-02T07:36:57;28.10;;;10.90;;
50681;SDS011;36779;52.168;20.878;2024-03-02T07:39:37;37.50;;;12.60;;
50681;SDS011;36779;52.168;20.878;2024-03-02T07:42:12;30.40;;;12.10;;
50681;SDS011;36779;52.168;20.878;2024-03-02T07:44:48;35.10;;;12.50;;
50681;SDS011;36779;52.168;20.878;2024-03-02T07:47:20;36.50;;;12.70;;
50681;SDS011;36779;52.168;20.878;2024-03-02T07:49:53;37.10;;;12.10;;
50681;SDS011;36779;52.168;20.878;2024-03-02T07:52:25;38.60;;;13.40;;
50681;SDS011;36779;52.168;20.878;2024-03-02T07:54:58;36.00;;;12.50;;
50681;SDS011;36779;52.168;20.878;2024-03-02T07:57:33;37.60;;;13.10;;
50681;SDS011;36779;52.168;20.878;2024-03-02T08:00:06;28.10;;;10.60;;
50681;SDS011;36779;52.168;20.878;2024-03-02T08:02:42;31.40;;;11.10;;
50681;SDS011;36779;52.168;20.878;2024-03-02T08:05:23;31.60;;;12.50;;
50681;SDS011;36779;52.168;20.878;2024-03-02T08:07:58;34.10;;;11.50;;
50681;SDS011;36779;52.168;20.878;2024-03-02T08:10:30;34.10;;;12.30;;
50681;SDS011;36779;52.168;20.878;2024-03-02T08:13:03;38.90;;;13.00;;
50681;SDS011;36779;52.168;20.878;2024-03-02T08:15:35;26.80;;;10.10;;
50681;SDS011;36779;52.168;20.878;2024-03-02T08:18:07;32.90;;;10.90;;
50681;SDS011;36779;52.168;20.878;2024-03-02T08:20:40;32.70;;;12.40;;
50681;SDS011;36779;52.168;20.878;2024-03-02T08:23:15;34.20;;;12.20;;
50681;SDS011;36779;52.168;20.878;2024-03-02T08:25:48;33.20;;;10.90;;
50681;SDS011;36779;52.168;20.878;2024-03-02T08:28:21;30.50;;;11.70;;
50681;SDS011;36779;52.168;20.878;2024-03-02T08:30:53;27.90;;;10.10;;
50681;SDS011;36779;52.168;20.878;2024-03-02T08:33:27;37.30;;;12.40;;
50681;SDS011;36779;52.168;20.878;2024-03-02T08:36:00;34.10;;;11.90;;
50681;SDS011;36779;52.168;20.878;2024-03-02T08:38:37;31.40;;;11.80;;
50681;SDS011;36779;52.168;20.878;2024-03-02T08:41:09;32.50;;;12.00;;
50681;SDS011;36779;52.168;20.878;2024-03-02T08:43:46;37.70;;;12.70;;
50681;SDS011;36779;52.168;20.878;2024-03-02T08:46:18;34.40;;;12.50;;
50681;SDS011;36779;52.168;20.878;2024-03-02T08:48:50;32.10;;;12.40;;
50681;SDS011;36779;52.168;20.878;2024-03-02T08:51:22;28.30;;;10.00;;
50681;SDS011;36779;52.168;20.878;2024-03-02T08:53:59;25.40;;;10.70;;
50681;SDS011;36779;52.168;20.878;2024-03-02T08:56:33;35.50;;;12.90;;
50681;SDS011;36779;52.168;20.878;2024-03-02T08:59:06;32.90;;;12.70;;
50681;SDS011;36779;52.168;20.878;2024-03-02T09:01:42;33.90;;;11.80;;
50681;SDS011;36779;52.168;20.878;2024-03-02T09:04:18;34.20;;;12.60;;
50681;SDS011;36779;52.168;20.878;2024-03-02T09:06:55;36.20;;;12.80;;
50681;SDS011;36779;52.168;20.878;2024-03-02T09:09:27;37.90;;;13.10;;
50681;SDS011;36779;52.168;20.878;2024-03-02T09:12:01;38.40;;;12.80;;
50681;SDS011;36779;52.168;20.878;2024-03-02T09:14:34;30.30;;;12.40;;
50681;SDS011;36779;52.168;20.878;2024-03-02T09:17:07;32.50;;;12.30;;
50681;SDS011;36779;52.168;20.878;2024-03-02T09:19:40;31.70;;;13.10;;
50681;SDS011;36779;52.168;20.878;2024-03-02T09:22:17;37.30;;;14.40;;
50681;SDS011;36779;52.168;20.878;2024-03-02T09:24:49;37.20;;;13.50;;
50681;SDS011;36779;52.168;20.878;2024-03-02T09:27:21;37.90;;;13.50;;
50681;SDS011;36779;52.168;20.878;2024-03-02T09:29:53;35.40;;;12.60;;
50681;SDS011;36779;52.168;20.878;2024-03-02T09:32:26;28.90;;;11.50;;
50681;SDS011;36779;52.168;20.878;2024-03-02T09:34:58;37.30;;;13.10;;
50681;SDS011;36779;52.168;20.878;2024-03-02T09:37:30;29.40;;;12.00;;
50681;SDS011;36779;52.168;20.878;2024-03-02T09:40:03;36.00;;;12.80;;
50681;SDS011;36779;52.168;20.878;2024-03-02T09:42:36;35.80;;;12.90;;
50681;SDS011;36779;52.168;20.878;2024-03-02T09:45:09;26.90;;;10.80;;
50681;SDS011;36779;52.168;20.878;2024-03-02T09:47:41;35.20;;;12.90;;
50681;SDS011;36779;52.168;20.878;2024-03-02T09:50:14;40.70;;;13.60;;
50681;SDS011;36779;52.168;20.878;2024-03-02T09:52:49;39.50;;;13.80;;
50681;SDS011;36779;52.168;20.878;2024-03-02T09:55:23;33.20;;;12.90;;
50681;SDS011;36779;52.168;20.878;2024-03-02T09:57:56;40.50;;;14.80;;
50681;SDS011;36779;52.168;20.878;2024-03-02T10:00:28;31.60;;;12.10;;
50681;SDS011;36779;52.168;20.878;2024-03-02T10:03:00;33.30;;;12.30;;
50681;SDS011;36779;52.168;20.878;2024-03-02T10:05:34;32.90;;;12.90;;
50681;SDS011;36779;52.168;20.878;2024-03-02T10:08:07;30.30;;;10.90;;
50681;SDS011;36779;52.168;20.878;2024-03-02T10:10:40;29.70;;;11.40;;
50681;SDS011;36779;52.168;20.878;2024-03-02T10:13:15;32.30;;;10.50;;
50681;SDS011;36779;52.168;20.878;2024-03-02T10:15:47;31.00;;;10.20;;
50681;SDS011;36779;52.168;20.878;2024-03-02T10:18:26;38.30;;;11.80;;
50681;SDS011;36779;52.168;20.878;2024-03-02T10:21:01;37.40;;;12.90;;
50681;SDS011;36779;52.168;20.878;2024-03-02T10:23:45;30.50;;;11.10;;
50681;SDS011;36779;52.168;20.878;2024-03-02T10:26:17;34.00;;;11.50;;
50681;SDS011;36779;52.168;20.878;2024-03-02T10:28:49;32.70;;;11.80;;
50681;SDS011;36779;52.168;20.878;2024-03-02T10:31:29;24.60;;;8.80;;
50681;SDS011;36779;52.168;20.878;2024-03-02T10:34:17;32.80;;;13.30;;
50681;SDS011;36779;52.168;20.878;2024-03-02T10:36:51;35.50;;;12.20;;
50681;SDS011;36779;52.168;20.878;2024-03-02T10:39:25;30.90;;;12.10;;
50681;SDS011;36779;52.168;20.878;2024-03-02T10:41:58;31.00;;;11.90;;
50681;SDS011;36779;52.168;20.878;2024-03-02T10:44:32;31.10;;;12.10;;
50681;SDS011;36779;52.168;20.878;2024-03-02T10:47:05;36.40;;;11.70;;
50681;SDS011;36779;52.168;20.878;2024-03-02T10:49:39;25.70;;;10.40;;
50681;SDS011;36779;52.168;20.878;2024-03-02T10:52:18;32.60;;;12.10;;
50681;SDS011;36779;52.168;20.878;2024-03-02T10:54:53;33.90;;;13.30;;
50681;SDS011;36779;52.168;20.878;2024-03-02T10:57:25;28.70;;;10.90;;
50681;SDS011;36779;52.168;20.878;2024-03-02T11:00:04;31.60;;;12.30;;
50681;SDS011;36779;52.168;20.878;2024-03-02T11:02:46;32.50;;;11.80;;
50681;SDS011;36779;52.168;20.878;2024-03-02T11:05:26;30.30;;;12.10;;
50681;SDS011;36779;52.168;20.878;2024-03-02T11:08:01;29.90;;;11.10;;
50681;SDS011;36779;52.168;20.878;2024-03-02T11:10:37;29.70;;;12.40;;
50681;SDS011;36779;52.168;20.878;2024-03-02T11:13:16;33.70;;;11.20;;
50681;SDS011;36779;52.168;20.878;2024-03-02T11:15:55;32.90;;;12.30;;
50681;SDS011;36779;52.168;20.878;2024-03-02T11:18:31;33.90;;;11.20;;
50681;SDS011;36779;52.168;20.878;2024-03-02T11:21:04;28.10;;;11.90;;
50681;SDS011;36779;52.168;20.878;2024-03-02T11:23:37;28.40;;;10.90;;
50681;SDS011;36779;52.168;20.878;2024-03-02T11:26:18;25.60;;;11.30;;
50681;SDS011;36779;52.168;20.878;2024-03-02T11:28:52;20.80;;;8.20;;
50681;SDS011;36779;52.168;20.878;2024-03-02T11:34:30;29.30;;;12.30;;
50681;SDS011;36779;52.168;20.878;2024-03-02T11:37:04;26.40;;;11.20;;
50681;SDS011;36779;52.168;20.878;2024-03-02T11:39:39;31.70;;;11.30;;
50681;SDS011;36779;52.168;20.878;2024-03-02T11:42:15;33.70;;;12.50;;
50681;SDS011;36779;52.168;20.878;2024-03-02T11:44:48;38.30;;;13.50;;
50681;SDS011;36779;52.168;20.878;2024-03-02T11:47:20;21.50;;;9.00;;
50681;SDS011;36779;52.168;20.878;2024-03-02T11:49:53;28.00;;;12.30;;
50681;SDS011;36779;52.168;20.878;2024-03-02T11:52:26;32.00;;;12.10;;
50681;SDS011;36779;52.168;20.878;2024-03-02T11:54:59;28.40;;;12.30;;
50681;SDS011;36779;52.168;20.878;2024-03-02T11:57:34;30.30;;;12.70;;
50681;SDS011;36779;52.168;20.878;2024-03-02T12:00:16;24.50;;;10.40;;
50681;SDS011;36779;52.168;20.878;2024-03-02T12:02:59;30.50;;;13.70;;
50681;SDS011;36779;52.168;20.878;2024-03-02T12:05:34;27.90;;;13.10;;
50681;SDS011;36779;52.168;20.878;2024-03-02T12:08:10;30.60;;;13.00;;
50681;SDS011;36779;52.168;20.878;2024-03-02T12:10:45;27.60;;;12.30;;
50681;SDS011;36779;52.168;20.878;2024-03-02T12:13:28;31.50;;;13.70;;
50681;SDS011;36779;52.168;20.878;2024-03-02T12:16:01;38.60;;;15.10;;
50681;SDS011;36779;52.168;20.878;2024-03-02T12:18:35;35.80;;;16.10;;
50681;SDS011;36779;52.168;20.878;2024-03-02T12:21:07;37.20;;;15.10;;
50681;SDS011;36779;52.168;20.878;2024-03-02T12:23:40;38.70;;;15.20;;
50681;SDS011;36779;52.168;20.878;2024-03-02T12:26:14;36.50;;;15.90;;
50681;SDS011;36779;52.168;20.878;2024-03-02T12:28:46;33.10;;;15.00;;
50681;SDS011;36779;52.168;20.878;2024-03-02T12:31:19;42.00;;;16.60;;
50681;SDS011;36779;52.168;20.878;2024-03-02T12:33:51;36.90;;;16.00;;
50681;SDS011;36779;52.168;20.878;2024-03-02T12:36:24;37.30;;;16.70;;
50681;SDS011;36779;52.168;20.878;2024-03-02T12:38:59;39.50;;;18.00;;
50681;SDS011;36779;52.168;20.878;2024-03-02T12:41:32;36.20;;;16.40;;
50681;SDS011;36779;52.168;20.878;2024-03-02T12:44:08;33.90;;;15.70;;
50681;SDS011;36779;52.168;20.878;2024-03-02T12:46:40;34.80;;;16.20;;
50681;SDS011;36779;52.168;20.878;2024-03-02T12:49:16;40.70;;;17.50;;
50681;SDS011;36779;52.168;20.878;2024-03-02T12:51:52;35.10;;;16.30;;
50681;SDS011;36779;52.168;20.878;2024-03-02T12:54:27;31.80;;;14.80;;
50681;SDS011;36779;52.168;20.878;2024-03-02T12:57:06;40.90;;;17.50;;
50681;SDS011;36779;52.168;20.878;2024-03-02T13:00:48;38.40;;;16.40;;
50681;SDS011;36779;52.168;20.878;2024-03-02T13:03:20;44.60;;;18.40;;
50681;SDS011;36779;52.168;20.878;2024-03-02T13:05:53;39.80;;;17.50;;
50681;SDS011;36779;52.168;20.878;2024-03-02T13:08:26;39.40;;;17.40;;
50681;SDS011;36779;52.168;20.878;2024-03-02T13:10:58;40.30;;;17.70;;
50681;SDS011;36779;52.168;20.878;2024-03-02T13:13:33;42.70;;;18.50;;
50681;SDS011;36779;52.168;20.878;2024-03-02T13:16:05;38.70;;;17.40;;
50681;SDS011;36779;52.168;20.878;2024-03-02T13:18:42;38.60;;;16.80;;
50681;SDS011;36779;52.168;20.878;2024-03-02T13:21:17;45.70;;;19.00;;
50681;SDS011;36779;52.168;20.878;2024-03-02T13:23:49;37.20;;;16.70;;
50681;SDS011;36779;52.168;20.878;2024-03-02T13:26:21;31.90;;;14.00;;
50681;SDS011;36779;52.168;20.878;2024-03-02T13:28:53;37.50;;;17.20;;
50681;SDS011;36779;52.168;20.878;2024-03-02T13:31:26;36.50;;;16.30;;
50681;SDS011;36779;52.168;20.878;2024-03-02T13:34:06;35.50;;;16.50;;
50681;SDS011;36779;52.168;20.878;2024-03-02T13:36:38;39.10;;;16.70;;
50681;SDS011;36779;52.168;20.878;2024-03-02T13:39:13;38.30;;;17.30;;
50681;SDS011;36779;52.168;20.878;2024-03-02T13:41:50;38.70;;;15.60;;
50681;SDS011;36779;52.168;20.878;2024-03-02T13:44:48;31.30;;;14.90;;
50681;SDS011;36779;52.168;20.878;2024-03-02T13:47:21;39.70;;;16.30;;
50681;SDS011;36779;52.168;20.878;2024-03-02T13:49:54;35.30;;;15.40;;
50681;SDS011;36779;52.168;20.878;2024-03-02T13:52:26;36.80;;;17.60;;
50681;SDS011;36779;52.168;20.878;2024-03-02T13:54:59;41.40;;;17.60;;
50681;SDS011;36779;52.168;20.878;2024-03-02T13:57:31;42.80;;;17.20;;
50681;SDS011;36779;52.168;20.878;2024-03-02T14:00:04;36.50;;;17.00;;
50681;SDS011;36779;52.168;20.878;2024-03-02T14:02:41;37.20;;;16.00;;
50681;SDS011;36779;52.168;20.878;2024-03-02T14:05:14;36.70;;;16.70;;
50681;SDS011;36779;52.168;20.878;2024-03-02T14:07:55;37.30;;;16.60;;
50681;SDS011;36779;52.168;20.878;2024-03-02T14:10:28;38.60;;;16.50;;
50681;SDS011;36779;52.168;20.878;2024-03-02T14:13:00;41.80;;;17.40;;
50681;SDS011;36779;52.168;20.878;2024-03-02T14:15:32;42.10;;;15.60;;
50681;SDS011;36779;52.168;20.878;2024-03-02T14:18:08;39.00;;;17.50;;
50681;SDS011;36779;52.168;20.878;2024-03-02T14:20:41;36.30;;;14.50;;
50681;SDS011;36779;52.168;20.878;2024-03-02T14:23:21;39.80;;;17.60;;
50681;SDS011;36779;52.168;20.878;2024-03-02T14:25:55;35.80;;;16.90;;
50681;SDS011;36779;52.168;20.878;2024-03-02T14:28:28;38.80;;;16.60;;
50681;SDS011;36779;52.168;20.878;2024-03-02T14:31:18;36.80;;;17.20;;
50681;SDS011;36779;52.168;20.878;2024-03-02T14:33:51;45.60;;;18.30;;
50681;SDS011;36779;52.168;20.878;2024-03-02T14:36:23;47.90;;;16.30;;
50681;SDS011;36779;52.168;20.878;2024-03-02T14:39:01;31.50;;;14.20;;
50681;SDS011;36779;52.168;20.878;2024-03-02T14:41:40;38.30;;;18.40;;
50681;SDS011;36779;52.168;20.878;2024-03-02T14:44:15;42.90;;;19.20;;
50681;SDS011;36779;52.168;20.878;2024-03-02T14:46:51;50.80;;;19.10;;
50681;SDS011;36779;52.168;20.878;2024-03-02T14:49:24;46.30;;;17.70;;
50681;SDS011;36779;52.168;20.878;2024-03-02T14:51:56;38.70;;;16.00;;
50681;SDS011;36779;52.168;20.878;2024-03-02T14:54:28;44.10;;;18.50;;
50681;SDS011;36779;52.168;20.878;2024-03-02T14:57:01;44.40;;;17.10;;
50681;SDS011;36779;52.168;20.878;2024-03-02T14:59:34;34.60;;;14.10;;